sensor_id;sensor_type;location;lat;lon;timestamp;temperature;humidity
26270;DHT22;15937;50.612;6.656;2023-02-28T00:03:50;0.10;99.90
26270;DHT22;15937;50.612;6.656;2023-02-28T00:07:52;0.00;99.90
26270;DHT22;15937;50.612;6.656;2023-02-28T00:11:54;0.00;99.90
26270;DHT22;15937;50.612;6.656;2023-02-28T00:15:59;0.00;99.90
26270;DHT22;15937;50.612;6.656;2023-02-28T00:20:01;-0.10;99.90
26270;DHT22;15937;50.612;6.656;2023-02-28T00:24:03;-0.20;99.90
26270;DHT22;15937;50.612;6.656;2023-02-28T00:28:05;-0.20;99.90
26270;DHT22;15937;50.612;6.656;2023-02-28T00:32:07;-0.20;99.90
26270;DHT22;15937;50.612;6.656;2023-02-28T00:36:09;-0.30;99.90
26270;DHT22;15937;50.612;6.656;2023-02-28T00:40:11;-0.40;99.90
26270;DHT22;15937;50.612;6.656;2023-02-28T00:44:13;-0.40;99.90
26270;DHT22;15937;50.612;6.656;2023-02-28T00:48:15;-0.40;99.90
26270;DHT22;15937;50.612;6.656;2023-02-28T00:52:17;-0.40;99.90
26270;DHT22;15937;50.612;6.656;2023-02-28T00:56:19;-0.50;99.90
26270;DHT22;15937;50.612;6.656;2023-02-28T01:00:20;-0.50;99.90
26270;DHT22;15937;50.612;6.656;2023-02-28T01:04:22;-0.60;99.90
26270;DHT22;15937;50.612;6.656;2023-02-28T01:08:24;-0.60;99.90
26270;DHT22;15937;50.612;6.656;2023-02-28T01:12:27;-0.80;99.90
26270;DHT22;15937;50.612;6.656;2023-02-28T01:16:31;-0.80;99.90
26270;DHT22;15937;50.612;6.656;2023-02-28T01:20:33;-0.90;99.90
26270;DHT22;15937;50.612;6.656;2023-02-28T01:24:37;-0.90;99.90
26270;DHT22;15937;50.612;6.656;2023-02-28T01:28:39;-1.00;99.90
26270;DHT22;15937;50.612;6.656;2023-02-28T01:32:41;-1.00;99.90
26270;DHT22;15937;50.612;6.656;2023-02-28T01:36:42;-1.00;99.90
26270;DHT22;15937;50.612;6.656;2023-02-28T01:40:44;-1.30;99.90
26270;DHT22;15937;50.612;6.656;2023-02-28T01:44:59;-1.30;99.90
26270;DHT22;15937;50.612;6.656;2023-02-28T01:49:06;-1.40;99.90
26270;DHT22;15937;50.612;6.656;2023-02-28T01:53:10;-1.30;99.90
26270;DHT22;15937;50.612;6.656;2023-02-28T01:57:14;-1.60;99.90
26270;DHT22;15937;50.612;6.656;2023-02-28T02:01:17;-1.60;99.90
26270;DHT22;15937;50.612;6.656;2023-02-28T02:05:24;-1.50;99.90
26270;DHT22;15937;50.612;6.656;2023-02-28T02:09:25;-1.50;99.90
26270;DHT22;15937;50.612;6.656;2023-02-28T02:14:10;-1.40;99.90
26270;DHT22;15937;50.612;6.656;2023-02-28T02:17:56;-1.40;99.90
26270;DHT22;15937;50.612;6.656;2023-02-28T02:39:06;-1.50;99.90
26270;DHT22;15937;50.612;6.656;2023-02-28T02:43:15;-1.50;99.90
26270;DHT22;15937;50.612;6.656;2023-02-28T02:47:18;-1.60;99.90
26270;DHT22;15937;50.612;6.656;2023-02-28T02:51:22;-1.60;99.90
26270;DHT22;15937;50.612;6.656;2023-02-28T02:55:24;-1.70;99.90
26270;DHT22;15937;50.612;6.656;2023-02-28T02:59:26;-1.80;99.90
26270;DHT22;15937;50.612;6.656;2023-02-28T03:03:29;-1.70;99.90
26270;DHT22;15937;50.612;6.656;2023-02-28T03:07:32;-1.80;99.90
26270;DHT22;15937;50.612;6.656;2023-02-28T03:11:34;-1.90;99.90
26270;DHT22;15937;50.612;6.656;2023-02-28T03:28:19;-2.00;99.90
26270;DHT22;15937;50.612;6.656;2023-02-28T03:32:27;-2.00;99.90
26270;DHT22;15937;50.612;6.656;2023-02-28T03:36:32;-2.00;99.90
26270;DHT22;15937;50.612;6.656;2023-02-28T03:40:35;-2.00;99.90
26270;DHT22;15937;50.612;6.656;2023-02-28T03:44:39;-2.10;99.90
26270;DHT22;15937;50.612;6.656;2023-02-28T03:48:44;-2.10;99.90
26270;DHT22;15937;50.612;6.656;2023-02-28T03:52:49;-2.10;99.90
26270;DHT22;15937;50.612;6.656;2023-02-28T03:56:53;-2.10;99.90
26270;DHT22;15937;50.612;6.656;2023-02-28T04:01:08;-2.20;99.90
26270;DHT22;15937;50.612;6.656;2023-02-28T04:05:10;-2.30;99.90
26270;DHT22;15937;50.612;6.656;2023-02-28T04:09:13;-2.20;99.90
26270;DHT22;15937;50.612;6.656;2023-02-28T04:13:15;-2.30;99.90
26270;DHT22;15937;50.612;6.656;2023-02-28T04:17:17;-2.30;99.90
26270;DHT22;15937;50.612;6.656;2023-02-28T04:21:19;-2.40;99.90
26270;DHT22;15937;50.612;6.656;2023-02-28T04:25:23;-2.50;99.90
26270;DHT22;15937;50.612;6.656;2023-02-28T04:29:29;-2.60;99.90
26270;DHT22;15937;50.612;6.656;2023-02-28T04:33:31;-2.60;99.90
26270;DHT22;15937;50.612;6.656;2023-02-28T04:37:33;-2.60;99.90
26270;DHT22;15937;50.612;6.656;2023-02-28T04:41:36;-2.80;99.90
26270;DHT22;15937;50.612;6.656;2023-02-28T04:45:37;-2.80;99.90
26270;DHT22;15937;50.612;6.656;2023-02-28T04:49:39;-2.90;99.90
26270;DHT22;15937;50.612;6.656;2023-02-28T04:53:42;-2.70;99.90
26270;DHT22;15937;50.612;6.656;2023-02-28T04:57:44;-2.70;99.90
26270;DHT22;15937;50.612;6.656;2023-02-28T05:01:46;-2.90;99.90
26270;DHT22;15937;50.612;6.656;2023-02-28T05:05:48;-2.90;99.90
26270;DHT22;15937;50.612;6.656;2023-02-28T05:09:50;-3.00;99.90
26270;DHT22;15937;50.612;6.656;2023-02-28T05:13:52;-3.10;99.90
26270;DHT22;15937;50.612;6.656;2023-02-28T05:17:55;-3.20;99.90
26270;DHT22;15937;50.612;6.656;2023-02-28T05:21:56;-3.20;99.90
26270;DHT22;15937;50.612;6.656;2023-02-28T05:25:58;-3.20;99.90
26270;DHT22;15937;50.612;6.656;2023-02-28T05:30:00;-3.30;99.90
26270;DHT22;15937;50.612;6.656;2023-02-28T05:34:04;-3.20;99.90
26270;DHT22;15937;50.612;6.656;2023-02-28T05:38:06;-3.30;99.90
26270;DHT22;15937;50.612;6.656;2023-02-28T05:42:08;-3.30;99.90
26270;DHT22;15937;50.612;6.656;2023-02-28T05:46:11;-3.40;99.90
26270;DHT22;15937;50.612;6.656;2023-02-28T05:50:12;-3.70;99.90
26270;DHT22;15937;50.612;6.656;2023-02-28T05:54:14;-3.60;99.90
26270;DHT22;15937;50.612;6.656;2023-02-28T05:58:16;-3.60;99.90
26270;DHT22;15937;50.612;6.656;2023-02-28T06:02:17;-3.60;99.90
26270;DHT22;15937;50.612;6.656;2023-02-28T06:06:19;-3.70;99.90
26270;DHT22;15937;50.612;6.656;2023-02-28T06:10:21;-3.60;99.90
26270;DHT22;15937;50.612;6.656;2023-02-28T06:14:22;-3.50;99.90
26270;DHT22;15937;50.612;6.656;2023-02-28T06:18:24;-3.60;99.90
26270;DHT22;15937;50.612;6.656;2023-02-28T06:22:26;-3.60;99.90
26270;DHT22;15937;50.612;6.656;2023-02-28T06:26:27;-3.50;99.90
26270;DHT22;15937;50.612;6.656;2023-02-28T06:30:29;-3.50;99.90
26270;DHT22;15937;50.612;6.656;2023-02-28T06:34:35;-3.60;99.90
26270;DHT22;15937;50.612;6.656;2023-02-28T06:38:37;-3.70;99.90
26270;DHT22;15937;50.612;6.656;2023-02-28T06:42:38;-3.70;99.90
26270;DHT22;15937;50.612;6.656;2023-02-28T06:46:41;-3.60;99.90
26270;DHT22;15937;50.612;6.656;2023-02-28T06:50:42;-3.60;99.90
26270;DHT22;15937;50.612;6.656;2023-02-28T06:54:44;-3.50;99.90
26270;DHT22;15937;50.612;6.656;2023-02-28T06:58:47;-3.40;99.90
26270;DHT22;15937;50.612;6.656;2023-02-28T07:02:49;-3.20;99.90
26270;DHT22;15937;50.612;6.656;2023-02-28T07:06:51;-3.20;99.90
26270;DHT22;15937;50.612;6.656;2023-02-28T07:10:53;-3.00;99.90
26270;DHT22;15937;50.612;6.656;2023-02-28T07:14:55;-2.80;99.90
26270;DHT22;15937;50.612;6.656;2023-02-28T07:18:57;-2.70;99.90
26270;DHT22;15937;50.612;6.656;2023-02-28T07:22:59;-2.50;99.90
26270;DHT22;15937;50.612;6.656;2023-02-28T07:27:00;-2.30;99.90
26270;DHT22;15937;50.612;6.656;2023-02-28T07:31:04;-2.20;99.90
26270;DHT22;15937;50.612;6.656;2023-02-28T07:35:06;-2.10;99.90
26270;DHT22;15937;50.612;6.656;2023-02-28T07:39:08;-1.90;99.90
26270;DHT22;15937;50.612;6.656;2023-02-28T07:43:10;-1.90;99.90
26270;DHT22;15937;50.612;6.656;2023-02-28T07:47:12;-1.90;99.90
26270;DHT22;15937;50.612;6.656;2023-02-28T07:51:14;-1.80;99.90
26270;DHT22;15937;50.612;6.656;2023-02-28T07:55:15;-1.70;99.90
26270;DHT22;15937;50.612;6.656;2023-02-28T07:59:18;-1.50;99.90
26270;DHT22;15937;50.612;6.656;2023-02-28T08:03:20;-1.40;99.90
26270;DHT22;15937;50.612;6.656;2023-02-28T08:07:22;-1.10;99.90
26270;DHT22;15937;50.612;6.656;2023-02-28T08:11:24;-1.00;99.90
26270;DHT22;15937;50.612;6.656;2023-02-28T08:15:25;-0.90;99.90
26270;DHT22;15937;50.612;6.656;2023-02-28T08:19:29;-0.80;99.90
26270;DHT22;15937;50.612;6.656;2023-02-28T08:23:31;-0.70;99.90
26270;DHT22;15937;50.612;6.656;2023-02-28T08:27:35;-0.70;99.90
26270;DHT22;15937;50.612;6.656;2023-02-28T08:31:36;-0.60;99.90
26270;DHT22;15937;50.612;6.656;2023-02-28T08:35:38;-0.30;99.90
26270;DHT22;15937;50.612;6.656;2023-02-28T08:39:40;-0.30;99.90
26270;DHT22;15937;50.612;6.656;2023-02-28T08:43:41;-0.20;99.90
26270;DHT22;15937;50.612;6.656;2023-02-28T08:47:43;-0.10;99.90
26270;DHT22;15937;50.612;6.656;2023-02-28T08:51:44;0.00;99.90
26270;DHT22;15937;50.612;6.656;2023-02-28T08:55:46;0.10;99.90
26270;DHT22;15937;50.612;6.656;2023-02-28T08:59:48;0.10;99.90
26270;DHT22;15937;50.612;6.656;2023-02-28T09:03:50;0.10;99.90
26270;DHT22;15937;50.612;6.656;2023-02-28T09:07:52;0.10;99.90
26270;DHT22;15937;50.612;6.656;2023-02-28T09:11:55;0.10;99.90
26270;DHT22;15937;50.612;6.656;2023-02-28T09:16:00;0.20;99.90
26270;DHT22;15937;50.612;6.656;2023-02-28T09:20:02;0.30;99.90
26270;DHT22;15937;50.612;6.656;2023-02-28T09:24:04;0.60;99.90
26270;DHT22;15937;50.612;6.656;2023-02-28T09:28:06;0.60;99.90
26270;DHT22;15937;50.612;6.656;2023-02-28T09:32:08;0.70;99.90
26270;DHT22;15937;50.612;6.656;2023-02-28T09:36:09;0.90;99.90
26270;DHT22;15937;50.612;6.656;2023-02-28T09:40:11;1.00;99.90
26270;DHT22;15937;50.612;6.656;2023-02-28T09:44:15;1.20;99.90
26270;DHT22;15937;50.612;6.656;2023-02-28T09:48:20;1.30;99.90
26270;DHT22;15937;50.612;6.656;2023-02-28T09:52:25;1.40;99.90
26270;DHT22;15937;50.612;6.656;2023-02-28T09:56:36;1.30;99.90
26270;DHT22;15937;50.612;6.656;2023-02-28T10:00:39;1.30;99.90
26270;DHT22;15937;50.612;6.656;2023-02-28T10:13:04;1.50;99.90
26270;DHT22;15937;50.612;6.656;2023-02-28T10:17:09;1.50;99.60
26270;DHT22;15937;50.612;6.656;2023-02-28T10:21:17;1.40;98.80
26270;DHT22;15937;50.612;6.656;2023-02-28T10:25:21;1.70;98.00
26270;DHT22;15937;50.612;6.656;2023-02-28T10:29:23;1.80;96.30
26270;DHT22;15937;50.612;6.656;2023-02-28T10:33:32;1.80;95.50
26270;DHT22;15937;50.612;6.656;2023-02-28T10:37:41;1.80;95.80
26270;DHT22;15937;50.612;6.656;2023-02-28T10:41:43;1.70;94.80
26270;DHT22;15937;50.612;6.656;2023-02-28T10:45:53;1.90;94.70
26270;DHT22;15937;50.612;6.656;2023-02-28T10:49:55;1.90;94.10
26270;DHT22;15937;50.612;6.656;2023-02-28T10:53:57;2.20;94.60
26270;DHT22;15937;50.612;6.656;2023-02-28T10:58:02;2.40;94.60
26270;DHT22;15937;50.612;6.656;2023-02-28T11:02:26;2.40;93.60
26270;DHT22;15937;50.612;6.656;2023-02-28T11:06:35;2.40;93.30
26270;DHT22;15937;50.612;6.656;2023-02-28T11:10:36;2.30;93.80
26270;DHT22;15937;50.612;6.656;2023-02-28T11:14:49;2.30;92.70
26270;DHT22;15937;50.612;6.656;2023-02-28T11:18:54;2.30;92.00
26270;DHT22;15937;50.612;6.656;2023-02-28T11:22:56;2.60;92.90
26270;DHT22;15937;50.612;6.656;2023-02-28T11:26:58;2.60;92.20
26270;DHT22;15937;50.612;6.656;2023-02-28T11:31:05;2.70;91.80
26270;DHT22;15937;50.612;6.656;2023-02-28T11:39:11;3.00;91.70
26270;DHT22;15937;50.612;6.656;2023-02-28T11:47:32;3.40;90.50
26270;DHT22;15937;50.612;6.656;2023-02-28T11:51:40;3.00;89.90
26270;DHT22;15937;50.612;6.656;2023-02-28T11:55:49;2.90;89.30
26270;DHT22;15937;50.612;6.656;2023-02-28T12:08:31;3.30;88.40
26270;DHT22;15937;50.612;6.656;2023-02-28T12:21:15;3.10;88.00
26270;DHT22;15937;50.612;6.656;2023-02-28T12:33:25;4.00;86.00
26270;DHT22;15937;50.612;6.656;2023-02-28T12:37:36;4.00;84.20
26270;DHT22;15937;50.612;6.656;2023-02-28T12:45:58;3.80;83.10
26270;DHT22;15937;50.612;6.656;2023-02-28T12:50:07;3.80;82.50
26270;DHT22;15937;50.612;6.656;2023-02-28T13:06:45;4.10;82.90
26270;DHT22;15937;50.612;6.656;2023-02-28T13:10:52;4.30;82.10
26270;DHT22;15937;50.612;6.656;2023-02-28T13:19:08;4.20;80.50
26270;DHT22;15937;50.612;6.656;2023-02-28T13:23:36;4.20;80.60
26270;DHT22;15937;50.612;6.656;2023-02-28T13:27:33;4.40;81.60
26270;DHT22;15937;50.612;6.656;2023-02-28T13:36:06;4.30;81.30
26270;DHT22;15937;50.612;6.656;2023-02-28T13:44:17;4.40;79.80
26270;DHT22;15937;50.612;6.656;2023-02-28T13:48:19;4.40;79.00
26270;DHT22;15937;50.612;6.656;2023-02-28T13:52:25;4.30;79.50
26270;DHT22;15937;50.612;6.656;2023-02-28T13:56:29;4.40;81.10
26270;DHT22;15937;50.612;6.656;2023-02-28T14:08:47;4.70;80.00
26270;DHT22;15937;50.612;6.656;2023-02-28T14:12:53;4.70;79.30
26270;DHT22;15937;50.612;6.656;2023-02-28T14:16:58;4.90;79.90
26270;DHT22;15937;50.612;6.656;2023-02-28T14:25:18;4.80;79.30
26270;DHT22;15937;50.612;6.656;2023-02-28T14:37:49;4.70;78.00
26270;DHT22;15937;50.612;6.656;2023-02-28T14:41:51;4.70;78.60
26270;DHT22;15937;50.612;6.656;2023-02-28T14:45:54;4.80;79.10
26270;DHT22;15937;50.612;6.656;2023-02-28T14:49:57;4.70;78.60
26270;DHT22;15937;50.612;6.656;2023-02-28T14:54:00;4.70;78.30
26270;DHT22;15937;50.612;6.656;2023-02-28T14:58:03;4.70;77.60
26270;DHT22;15937;50.612;6.656;2023-02-28T15:02:23;4.60;78.50
26270;DHT22;15937;50.612;6.656;2023-02-28T15:06:26;4.60;78.30
26270;DHT22;15937;50.612;6.656;2023-02-28T15:10:31;4.60;78.70
26270;DHT22;15937;50.612;6.656;2023-02-28T15:14:33;4.60;80.60
26270;DHT22;15937;50.612;6.656;2023-02-28T15:18:43;4.70;79.70
26270;DHT22;15937;50.612;6.656;2023-02-28T15:22:46;4.60;79.50
26270;DHT22;15937;50.612;6.656;2023-02-28T15:26:51;4.60;78.80
26270;DHT22;15937;50.612;6.656;2023-02-28T15:30:56;4.70;80.60
26270;DHT22;15937;50.612;6.656;2023-02-28T15:34:59;4.60;79.70
26270;DHT22;15937;50.612;6.656;2023-02-28T15:39:01;4.70;80.40
26270;DHT22;15937;50.612;6.656;2023-02-28T15:43:17;4.60;79.50
26270;DHT22;15937;50.612;6.656;2023-02-28T15:47:20;4.60;79.00
26270;DHT22;15937;50.612;6.656;2023-02-28T15:51:24;4.70;79.70
26270;DHT22;15937;50.612;6.656;2023-02-28T15:55:27;4.70;78.80
26270;DHT22;15937;50.612;6.656;2023-02-28T15:59:30;4.80;79.50
26270;DHT22;15937;50.612;6.656;2023-02-28T16:03:40;4.80;79.70
26270;DHT22;15937;50.612;6.656;2023-02-28T16:07:42;4.80;79.60
26270;DHT22;15937;50.612;6.656;2023-02-28T16:11:46;4.80;79.90
26270;DHT22;15937;50.612;6.656;2023-02-28T16:15:48;4.60;79.70
26270;DHT22;15937;50.612;6.656;2023-02-28T16:19:53;4.50;80.60
26270;DHT22;15937;50.612;6.656;2023-02-28T16:23:55;4.50;80.60
26270;DHT22;15937;50.612;6.656;2023-02-28T16:27:56;4.50;81.00
26270;DHT22;15937;50.612;6.656;2023-02-28T16:32:01;4.30;82.10
26270;DHT22;15937;50.612;6.656;2023-02-28T16:36:05;4.10;82.50
26270;DHT22;15937;50.612;6.656;2023-02-28T16:40:21;4.10;83.90
26270;DHT22;15937;50.612;6.656;2023-02-28T16:44:29;4.00;83.60
26270;DHT22;15937;50.612;6.656;2023-02-28T16:48:33;3.90;84.10
26270;DHT22;15937;50.612;6.656;2023-02-28T16:52:34;3.70;82.80
26270;DHT22;15937;50.612;6.656;2023-02-28T16:56:36;3.80;83.90
26270;DHT22;15937;50.612;6.656;2023-02-28T17:00:40;3.70;84.00
26270;DHT22;15937;50.612;6.656;2023-02-28T17:04:41;3.80;83.90
26270;DHT22;15937;50.612;6.656;2023-02-28T17:08:43;3.80;84.30
26270;DHT22;15937;50.612;6.656;2023-02-28T17:12:45;3.70;84.60
26270;DHT22;15937;50.612;6.656;2023-02-28T17:16:46;3.60;84.50
26270;DHT22;15937;50.612;6.656;2023-02-28T17:20:48;3.50;84.90
26270;DHT22;15937;50.612;6.656;2023-02-28T17:24:50;3.50;85.10
26270;DHT22;15937;50.612;6.656;2023-02-28T17:28:52;3.40;85.10
26270;DHT22;15937;50.612;6.656;2023-02-28T17:32:55;3.30;86.00
26270;DHT22;15937;50.612;6.656;2023-02-28T17:36:57;3.10;86.70
26270;DHT22;15937;50.612;6.656;2023-02-28T17:40:58;3.10;87.40
26270;DHT22;15937;50.612;6.656;2023-02-28T17:45:00;3.00;87.90
26270;DHT22;15937;50.612;6.656;2023-02-28T17:49:02;2.90;88.00
26270;DHT22;15937;50.612;6.656;2023-02-28T17:53:04;2.80;88.40
26270;DHT22;15937;50.612;6.656;2023-02-28T17:57:05;2.80;88.90
26270;DHT22;15937;50.612;6.656;2023-02-28T18:01:07;2.80;88.90
26270;DHT22;15937;50.612;6.656;2023-02-28T18:05:09;2.70;89.30
26270;DHT22;15937;50.612;6.656;2023-02-28T18:09:15;2.70;89.70
26270;DHT22;15937;50.612;6.656;2023-02-28T18:13:16;2.60;90.60
26270;DHT22;15937;50.612;6.656;2023-02-28T18:17:18;2.50;90.70
26270;DHT22;15937;50.612;6.656;2023-02-28T18:21:22;2.40;91.00
26270;DHT22;15937;50.612;6.656;2023-02-28T18:25:24;2.10;91.50
26270;DHT22;15937;50.612;6.656;2023-02-28T18:29:26;2.00;92.00
26270;DHT22;15937;50.612;6.656;2023-02-28T18:33:28;1.90;92.40
26270;DHT22;15937;50.612;6.656;2023-02-28T18:37:29;1.90;92.60
26270;DHT22;15937;50.612;6.656;2023-02-28T18:41:31;1.70;93.00
26270;DHT22;15937;50.612;6.656;2023-02-28T18:45:36;1.70;93.50
26270;DHT22;15937;50.612;6.656;2023-02-28T18:49:38;1.60;93.50
26270;DHT22;15937;50.612;6.656;2023-02-28T18:53:40;1.70;93.80
26270;DHT22;15937;50.612;6.656;2023-02-28T18:57:42;1.60;93.90
26270;DHT22;15937;50.612;6.656;2023-02-28T19:01:44;1.50;94.00
26270;DHT22;15937;50.612;6.656;2023-02-28T19:05:47;1.40;94.70
26270;DHT22;15937;50.612;6.656;2023-02-28T19:09:51;1.20;95.70
26270;DHT22;15937;50.612;6.656;2023-02-28T19:13:52;1.20;96.40
26270;DHT22;15937;50.612;6.656;2023-02-28T19:17:54;1.10;97.10
26270;DHT22;15937;50.612;6.656;2023-02-28T19:21:56;0.90;97.40
26270;DHT22;15937;50.612;6.656;2023-02-28T19:25:58;0.90;98.00
26270;DHT22;15937;50.612;6.656;2023-02-28T19:29:59;0.80;97.50
26270;DHT22;15937;50.612;6.656;2023-02-28T19:34:04;0.80;98.70
26270;DHT22;15937;50.612;6.656;2023-02-28T19:38:06;0.60;99.10
26270;DHT22;15937;50.612;6.656;2023-02-28T19:42:11;0.50;99.60
26270;DHT22;15937;50.612;6.656;2023-02-28T19:46:13;0.50;99.90
26270;DHT22;15937;50.612;6.656;2023-02-28T19:50:15;0.40;99.90
26270;DHT22;15937;50.612;6.656;2023-02-28T19:54:17;0.20;99.90
26270;DHT22;15937;50.612;6.656;2023-02-28T19:58:19;0.30;99.90
26270;DHT22;15937;50.612;6.656;2023-02-28T20:02:21;0.30;99.90
26270;DHT22;15937;50.612;6.656;2023-02-28T20:06:23;0.10;99.90
26270;DHT22;15937;50.612;6.656;2023-02-28T20:10:25;0.00;99.90
26270;DHT22;15937;50.612;6.656;2023-02-28T20:14:26;0.10;99.90
26270;DHT22;15937;50.612;6.656;2023-02-28T20:18:28;0.00;99.90
26270;DHT22;15937;50.612;6.656;2023-02-28T20:22:30;0.10;99.90
26270;DHT22;15937;50.612;6.656;2023-02-28T20:26:32;-0.10;99.90
26270;DHT22;15937;50.612;6.656;2023-02-28T20:30:34;-0.20;99.90
26270;DHT22;15937;50.612;6.656;2023-02-28T20:34:35;-0.30;99.90
26270;DHT22;15937;50.612;6.656;2023-02-28T20:38:37;-0.30;99.90
26270;DHT22;15937;50.612;6.656;2023-02-28T20:42:39;-0.30;99.90
26270;DHT22;15937;50.612;6.656;2023-02-28T20:46:41;-0.40;99.90
26270;DHT22;15937;50.612;6.656;2023-02-28T20:50:53;-0.70;99.90
26270;DHT22;15937;50.612;6.656;2023-02-28T20:54:55;-0.50;99.90
26270;DHT22;15937;50.612;6.656;2023-02-28T20:58:57;-0.50;99.90
26270;DHT22;15937;50.612;6.656;2023-02-28T21:02:58;-0.50;99.90
26270;DHT22;15937;50.612;6.656;2023-02-28T21:12:04;-0.40;99.90
26270;DHT22;15937;50.612;6.656;2023-02-28T21:16:09;-0.30;99.90
26270;DHT22;15937;50.612;6.656;2023-02-28T21:20:14;-0.50;99.90
26270;DHT22;15937;50.612;6.656;2023-02-28T21:24:32;-0.50;99.90
26270;DHT22;15937;50.612;6.656;2023-02-28T21:28:35;-0.60;99.90
26270;DHT22;15937;50.612;6.656;2023-02-28T21:32:45;-0.70;99.90
26270;DHT22;15937;50.612;6.656;2023-02-28T21:36:57;-0.70;99.90
26270;DHT22;15937;50.612;6.656;2023-02-28T21:41:06;-0.80;99.90
26270;DHT22;15937;50.612;6.656;2023-02-28T21:45:10;-0.70;99.90
26270;DHT22;15937;50.612;6.656;2023-02-28T21:49:37;-0.80;99.90
26270;DHT22;15937;50.612;6.656;2023-02-28T21:53:40;-1.00;99.90
26270;DHT22;15937;50.612;6.656;2023-02-28T21:57:42;-1.00;99.90
26270;DHT22;15937;50.612;6.656;2023-02-28T22:01:44;-1.10;99.90
26270;DHT22;15937;50.612;6.656;2023-02-28T22:05:46;-1.20;99.90
26270;DHT22;15937;50.612;6.656;2023-02-28T22:09:47;-1.20;99.90
26270;DHT22;15937;50.612;6.656;2023-02-28T22:13:51;-1.70;99.90
26270;DHT22;15937;50.612;6.656;2023-02-28T22:17:52;-1.70;99.90
26270;DHT22;15937;50.612;6.656;2023-02-28T22:21:56;-1.50;99.90
26270;DHT22;15937;50.612;6.656;2023-02-28T22:26:01;-1.50;99.90
26270;DHT22;15937;50.612;6.656;2023-02-28T22:30:03;-1.50;99.90
26270;DHT22;15937;50.612;6.656;2023-02-28T22:34:06;-1.40;99.90
26270;DHT22;15937;50.612;6.656;2023-02-28T22:38:08;-1.40;99.90
26270;DHT22;15937;50.612;6.656;2023-02-28T22:42:10;-1.40;99.90
26270;DHT22;15937;50.612;6.656;2023-02-28T22:46:13;-1.40;99.90
26270;DHT22;15937;50.612;6.656;2023-02-28T22:50:15;-1.40;99.90
26270;DHT22;15937;50.612;6.656;2023-02-28T23:14:31;-1.60;99.90
26270;DHT22;15937;50.612;6.656;2023-02-28T23:23:36;-1.70;99.90
26270;DHT22;15937;50.612;6.656;2023-02-28T23:32:41;-1.70;99.90
26270;DHT22;15937;50.612;6.656;2023-02-28T23:36:43;-1.70;99.90
26270;DHT22;15937;50.612;6.656;2023-02-28T23:40:48;-1.50;99.90
26270;DHT22;15937;50.612;6.656;2023-02-28T23:44:52;-2.00;99.90
26270;DHT22;15937;50.612;6.656;2023-02-28T23:48:54;-1.90;99.90
26270;DHT22;15937;50.612;6.656;2023-02-28T23:52:56;-2.00;99.90
26270;DHT22;15937;50.612;6.656;2023-02-28T23:56:58;-2.10;99.90
